Time;durP1;ratioP1;P1;durP2;ratioP2;P2;SDS_P1;SDS_P2;PMS_P1;PMS_P2;Temp;Humidity;BMP_temperature;BMP_pressure;BME280_temperature;BME280_humidity;BME280_pressure;Samples;Min_cycle;Max_cycle;Signal;HPM_P1;HPM_P2
2022/03/25 00:00:24;;;;;;;29.85;15.95;;;;;;;12.40;40.95;100924.53;4960237;28;20057;-83
2022/03/25 00:02:51;;;;;;;35.63;16.80;;;;;;;12.35;40.62;100919.56;5007974;28;20056;-83
2022/03/25 00:05:21;;;;;;;35.40;16.15;;;;;;;12.27;40.46;100929.97;4999560;28;20133;-84
2022/03/25 00:07:48;;;;;;;29.02;15.10;;;;;;;12.25;40.41;100926.56;5013836;28;20065;-83
2022/03/25 00:10:15;;;;;;;33.53;17.10;;;;;;;12.28;40.36;100931.66;4964870;28;20409;-84
2022/03/25 00:12:42;;;;;;;31.80;17.63;;;;;;;12.25;40.12;100931.91;5005524;28;20045;-83
2022/03/25 00:15:09;;;;;;;32.97;17.70;;;;;;;12.21;40.47;100932.25;4976489;28;20108;-84
2022/03/25 00:17:36;;;;;;;30.35;16.13;;;;;;;12.19;40.20;100931.53;5012179;28;20092;-84
2022/03/25 00:20:04;;;;;;;30.60;16.85;;;;;;;12.19;40.59;100940.38;4989214;28;20050;-84
2022/03/25 00:22:32;;;;;;;28.75;15.73;;;;;;;12.17;40.63;100936.97;4990393;28;20069;-83
2022/03/25 00:24:59;;;;;;;30.75;16.67;;;;;;;12.13;40.52;100936.34;5003381;28;20073;-84
2022/03/25 00:27:26;;;;;;;29.42;16.02;;;;;;;12.11;40.75;100935.66;4987192;28;20045;-83
2022/03/25 00:29:52;;;;;;;30.42;17.50;;;;;;;12.10;40.95;100939.25;5011801;28;20050;-84
2022/03/25 00:32:21;;;;;;;28.95;16.70;;;;;;;12.10;41.11;100936.59;5007379;28;20052;-84
2022/03/25 00:34:48;;;;;;;32.50;18.33;;;;;;;12.09;41.18;100940.25;5004508;28;20104;-84
2022/03/25 00:37:14;;;;;;;33.33;17.48;;;;;;;12.08;41.21;100935.03;4981535;28;20525;-84
2022/03/25 00:39:41;;;;;;;30.65;16.55;;;;;;;12.07;41.21;100936.84;5004110;28;20046;-84
2022/03/25 00:42:09;;;;;;;32.40;17.20;;;;;;;12.04;41.23;100936.25;4985132;28;20049;-83
2022/03/25 00:44:38;;;;;;;28.92;16.77;;;;;;;12.03;41.40;100931.88;4972421;28;20055;-84
2022/03/25 00:47:07;;;;;;;34.75;17.40;;;;;;;12.01;41.25;100928.47;4964085;28;20080;-84
2022/03/25 00:49:38;;;;;;;29.85;17.45;;;;;;;11.99;41.21;100933.94;4993536;28;20524;-83
2022/03/25 00:52:06;;;;;;;28.38;17.40;;;;;;;11.98;41.42;100936.69;4985470;28;20041;-84
2022/03/25 00:54:33;;;;;;;31.42;17.85;;;;;;;11.95;41.35;100930.63;5002786;28;20041;-83
2022/03/25 00:56:59;;;;;;;33.55;17.58;;;;;;;11.93;41.34;100927.25;5001780;28;20046;-84
2022/03/25 00:59:26;;;;;;;28.48;16.27;;;;;;;11.92;41.19;100927.38;5001685;28;20065;-84
2022/03/25 01:01:53;;;;;;;30.58;17.10;;;;;;;11.89;41.68;100928.44;4985501;28;20502;-83
2022/03/25 01:04:20;;;;;;;33.00;17.83;;;;;;;11.87;41.41;100924.22;4991934;28;20042;-83
2022/03/25 01:06:46;;;;;;;31.85;17.42;;;;;;;11.85;41.76;100921.63;4981927;28;20540;-84
2022/03/25 01:09:13;;;;;;;30.70;17.10;;;;;;;11.84;41.75;100927.09;4969342;28;20460;-83
2022/03/25 01:11:41;;;;;;;32.20;16.40;;;;;;;11.82;41.56;100932.50;4978451;28;20058;-84
2022/03/25 01:14:08;;;;;;;30.58;17.50;;;;;;;11.78;41.68;100922.22;4956195;28;20124;-83
2022/03/25 01:16:35;;;;;;;32.63;17.30;;;;;;;11.77;41.84;100918.72;4952348;28;20054;-83
2022/03/25 01:19:03;;;;;;;32.42;17.17;;;;;;;11.74;41.83;100922.44;4992822;28;20126;-83
2022/03/25 01:21:30;;;;;;;33.47;17.92;;;;;;;11.73;41.48;100919.94;4979073;28;20135;-83
2022/03/25 01:23:57;;;;;;;33.20;18.30;;;;;;;11.70;41.73;100912.16;4980382;28;20045;-83
2022/03/25 01:26:24;;;;;;;34.15;18.58;;;;;;;11.68;41.56;100922.09;4979829;28;20099;-83
2022/03/25 01:28:54;;;;;;;31.65;17.08;;;;;;;11.64;41.76;100910.81;4949381;28;20077;-84
2022/03/25 01:31:21;;;;;;;33.28;17.38;;;;;;;11.64;41.86;100915.28;4980090;28;20396;-83
2022/03/25 01:33:48;;;;;;;29.92;16.67;;;;;;;11.61;41.75;100927.00;4983502;28;20061;-83
2022/03/25 01:36:15;;;;;;;31.33;17.40;;;;;;;11.59;41.90;100922.78;4969576;28;20421;-84
2022/03/25 01:38:44;;;;;;;31.77;16.98;;;;;;;11.56;41.97;100917.69;4975654;28;20046;-83
2022/03/25 01:41:10;;;;;;;33.38;16.50;;;;;;;11.56;42.02;100917.69;4992240;28;20073;-84
2022/03/25 01:43:38;;;;;;;32.05;16.55;;;;;;;11.54;41.76;100914.28;4987362;28;20058;-84
2022/03/25 01:46:05;;;;;;;31.15;17.05;;;;;;;11.51;42.17;100915.38;4951295;28;20482;-83
2022/03/25 01:48:32;;;;;;;31.92;17.23;;;;;;;11.46;42.05;100913.03;4983724;28;20049;-83
2022/03/25 01:51:01;;;;;;;30.13;16.80;;;;;;;11.44;41.99;100914.13;4989112;28;20428;-83
2022/03/25 01:53:36;;;;;;;35.05;17.92;;;;;;;11.34;42.59;100913.97;4959330;28;20045;-83
2022/03/25 01:56:05;;;;;;;33.00;18.15;;;;;;;11.40;42.18;100918.84;4981477;28;20038;-83
2022/03/25 01:58:32;;;;;;;32.50;18.25;;;;;;;11.37;41.91;100924.38;4983330;28;20071;-83
2022/03/25 02:01:02;;;;;;;37.03;17.63;;;;;;;11.31;41.76;100914.19;4971868;28;20074;-84
2022/03/25 02:03:31;;;;;;;32.70;17.45;;;;;;;11.30;41.80;100921.31;4976056;28;20398;-84
2022/03/25 02:05:58;;;;;;;32.15;18.00;;;;;;;11.26;42.12;100919.84;4967618;28;20363;-84
2022/03/25 02:08:26;;;;;;;32.20;16.90;;;;;;;11.23;42.14;100921.91;4969122;28;20045;-83
2022/03/25 02:10:53;;;;;;;31.85;17.73;;;;;;;11.22;41.81;100925.50;4991621;28;20050;-83
2022/03/25 02:13:21;;;;;;;32.15;16.88;;;;;;;11.19;41.92;100920.41;5002753;28;20046;-83
2022/03/25 02:15:55;;;;;;;34.90;17.25;;;;;;;11.14;41.76;100917.25;4983775;28;20050;-84
2022/03/25 02:18:24;;;;;;;31.40;16.88;;;;;;;11.11;42.02;100922.78;5015397;28;20529;-83
2022/03/25 02:20:51;;;;;;;33.75;17.05;;;;;;;11.09;42.22;100917.56;4985381;28;20041;-84
2022/03/25 02:23:22;;;;;;;28.50;16.33;;;;;;;11.06;42.29;100917.81;4981671;28;20049;-84
2022/03/25 02:25:52;;;;;;;33.67;17.52;;;;;;;11.05;42.60;100922.28;4990221;28;20041;-83
2022/03/25 02:28:20;;;;;;;30.08;17.10;;;;;;;11.03;42.57;100918.88;4962075;28;20048;-83
2022/03/25 02:30:47;;;;;;;30.48;16.88;;;;;;;11.02;42.81;100922.50;4988378;28;20042;-83
2022/03/25 02:33:14;;;;;;;31.85;16.65;;;;;;;11.02;42.74;100926.97;4991587;28;22039;-83
2022/03/25 02:35:43;;;;;;;30.63;16.42;;;;;;;10.99;42.84;100922.75;5010116;28;20037;-83
2022/03/25 02:38:19;;;;;;;34.20;17.73;;;;;;;10.91;43.50;100921.59;4994540;28;20052;-83
2022/03/25 02:40:48;;;;;;;29.33;17.02;;;;;;;10.94;43.02;100924.00;4964706;28;20128;-83
2022/03/25 02:43:14;;;;;;;32.17;17.13;;;;;;;10.93;43.07;100919.66;4993956;28;20128;-83
2022/03/25 02:45:45;;;;;;;29.77;17.13;;;;;;;10.91;43.41;100918.94;4981291;28;20038;-83
2022/03/25 02:48:11;;;;;;;31.85;16.88;;;;;;;10.90;43.35;100917.25;4985854;28;20046;-84
2022/03/25 02:50:39;;;;;;;30.77;17.40;;;;;;;10.88;43.38;100920.00;4967543;28;20042;-83
2022/03/25 02:53:07;;;;;;;28.02;16.30;;;;;;;10.84;43.29;100924.69;4979796;28;20465;-83
2022/03/25 02:55:34;;;;;;;32.08;17.67;;;;;;;10.80;43.23;100917.91;5001395;28;20470;-84
2022/03/25 02:58:00;;;;;;;30.23;17.30;;;;;;;10.79;43.24;100915.38;4972504;28;20100;-84
2022/03/25 03:00:29;;;;;;;33.58;17.85;;;;;;;10.75;43.28;100924.50;4991133;28;20128;-84
2022/03/25 03:03:00;;;;;;;34.60;16.92;;;;;;;10.73;43.35;100913.13;4957368;28;20038;-84
2022/03/25 03:05:28;;;;;;;31.73;17.27;;;;;;;10.69;43.31;100924.97;5000106;28;20041;-83
2022/03/25 03:07:55;;;;;;;32.00;16.90;;;;;;;10.69;43.51;100928.44;5021094;28;20050;-84
2022/03/25 03:10:22;;;;;;;31.50;17.02;;;;;;;10.65;43.83;100919.84;5016981;28;20144;-84
2022/03/25 03:12:49;;;;;;;35.75;17.35;;;;;;;10.64;43.65;100922.63;4992498;28;20045;-84
2022/03/25 03:15:17;;;;;;;31.73;17.10;;;;;;;10.64;43.76;100922.63;4987215;28;20585;-83
2022/03/25 03:17:45;;;;;;;33.78;17.45;;;;;;;10.62;43.66;100927.19;4998198;28;20115;-83
2022/03/25 03:20:13;;;;;;;31.35;17.60;;;;;;;10.58;43.53;100923.03;5017046;28;20052;-83
2022/03/25 03:22:41;;;;;;;37.00;17.77;;;;;;;10.57;43.45;100930.16;5016813;28;20046;-84
2022/03/25 03:25:08;;;;;;;31.23;17.33;;;;;;;10.53;43.60;100925.19;4999193;28;20070;-83
2022/03/25 03:27:35;;;;;;;29.05;16.67;;;;;;;10.52;43.93;100926.16;4979236;28;20037;-84
2022/03/25 03:30:03;;;;;;;35.03;17.13;;;;;;;10.49;43.60;100931.69;5009752;28;20043;-84
2022/03/25 03:32:30;;;;;;;34.78;18.45;;;;;;;10.45;43.92;100912.44;5018142;28;20052;-84
2022/03/25 03:34:56;;;;;;;34.67;18.52;;;;;;;10.44;44.06;100921.38;4998863;28;20042;-84
2022/03/25 03:37:24;;;;;;;31.88;17.60;;;;;;;10.42;44.20;100920.63;4996065;28;20771;-84
2022/03/25 03:39:51;;;;;;;32.97;17.33;;;;;;;10.41;43.92;100917.13;4988196;28;20092;-84
2022/03/25 03:42:18;;;;;;;31.40;17.63;;;;;;;10.41;44.25;100911.81;4984200;28;20410;-84
2022/03/25 03:44:45;;;;;;;31.83;17.85;;;;;;;10.40;44.09;100917.22;5001103;28;20043;-83
2022/03/25 03:47:14;;;;;;;32.53;17.45;;;;;;;10.36;44.04;100924.56;4995367;28;20045;-84
2022/03/25 03:49:41;;;;;;;32.25;17.65;;;;;;;10.35;43.86;100911.38;4965380;28;20050;-84
2022/03/25 03:52:08;;;;;;;32.55;17.95;;;;;;;10.32;44.27;100925.72;4988942;28;20053;-84
2022/03/25 03:54:37;;;;;;;34.63;17.60;;;;;;;10.30;44.19;100917.00;4988256;28;20049;-84
2022/03/25 03:57:23;;;;;;;35.53;17.85;;;;;;;10.28;44.01;100923.38;4970039;28;20045;-84
2022/03/25 03:59:50;;;;;;;32.92;18.35;;;;;;;10.25;44.27;100919.13;5007484;28;20095;-84
2022/03/25 04:02:16;;;;;;;33.88;18.27;;;;;;;10.22;44.14;100919.34;5012670;28;20386;-84
2022/03/25 04:04:47;;;;;;;32.58;17.90;;;;;;;10.17;44.66;100929.41;4958851;28;20038;-84
2022/03/25 04:07:15;;;;;;;31.02;17.58;;;;;;;10.17;44.55;100927.59;4976958;28;20046;-83
2022/03/25 04:09:42;;;;;;;33.78;17.75;;;;;;;10.15;44.39;100918.06;4991053;28;20045;-83
2022/03/25 04:12:09;;;;;;;33.15;18.80;;;;;;;10.13;44.57;100922.66;4994185;28;20044;-83
2022/03/25 04:14:36;;;;;;;32.80;18.00;;;;;;;10.10;44.71;100926.38;4967348;28;20050;-83
2022/03/25 04:17:03;;;;;;;36.13;18.15;;;;;;;10.08;44.67;100924.78;5011764;28;20049;-83
2022/03/25 04:19:30;;;;;;;30.42;17.52;;;;;;;10.06;44.64;100924.88;4973946;28;20472;-83
2022/03/25 04:22:02;;;;;;;34.35;18.63;;;;;;;9.96;45.00;100924.63;4973916;28;20050;-83
2022/03/25 04:24:33;;;;;;;33.38;17.30;;;;;;;9.94;45.25;100917.75;4999493;28;20057;-83
2022/03/25 04:27:00;;;;;;;33.72;17.33;;;;;;;9.97;44.95;100920.19;4982854;28;20576;-84
2022/03/25 04:29:27;;;;;;;34.17;18.10;;;;;;;9.93;44.87;100914.25;4983388;28;20053;-84
2022/03/25 04:31:53;;;;;;;36.90;17.65;;;;;;;9.91;44.61;100912.66;4982916;28;20625;-83
2022/03/25 04:34:20;;;;;;;35.25;19.23;;;;;;;9.86;44.72;100918.25;4997598;28;20054;-84
2022/03/25 04:36:47;;;;;;;35.72;17.65;;;;;;;9.82;44.66;100919.44;4988963;28;20050;-84
2022/03/25 04:39:14;;;;;;;35.33;18.67;;;;;;;9.77;44.80;100924.22;4978794;28;20046;-84
2022/03/25 04:41:40;;;;;;;32.08;18.17;;;;;;;9.73;44.79;100918.25;4969925;28;20058;-84
2022/03/25 04:44:07;;;;;;;33.08;17.65;;;;;;;9.67;45.11;100921.31;4986272;28;20497;-84
2022/03/25 04:46:35;;;;;;;37.85;17.38;;;;;;;9.65;45.02;100915.28;5018874;28;20052;-84
2022/03/25 04:49:02;;;;;;;30.75;15.85;;;;;;;9.61;45.20;100913.75;4998890;28;20104;-81
2022/03/25 04:51:30;;;;;;;37.55;17.48;;;;;;;9.60;45.07;100919.19;5013972;28;20405;-79
2022/03/25 04:53:57;;;;;;;32.75;17.65;;;;;;;9.56;45.28;100915.88;4989076;28;20398;-80
2022/03/25 04:56:24;;;;;;;39.22;19.60;;;;;;;9.55;44.98;100916.84;4995557;28;20046;-80
2022/03/25 04:58:51;;;;;;;34.65;18.38;;;;;;;9.52;44.93;100915.25;4985267;28;20120;-79
2022/03/25 05:01:18;;;;;;;35.90;18.80;;;;;;;9.51;44.97;100920.63;4980209;28;20045;-80
2022/03/25 05:03:45;;;;;;;38.92;19.13;;;;;;;9.47;45.18;100927.13;4983989;28;20387;-79
2022/03/25 05:06:12;;;;;;;38.60;20.20;;;;;;;9.46;45.10;100936.84;4978346;28;20042;-80
2022/03/25 05:08:38;;;;;;;34.53;18.90;;;;;;;9.42;45.43;100930.06;4983578;28;20068;-79
2022/03/25 05:11:07;;;;;;;33.45;18.08;;;;;;;9.42;45.36;100937.16;4982976;28;20053;-80
2022/03/25 05:13:35;;;;;;;40.05;19.65;;;;;;;9.37;45.63;100941.94;4990663;28;20042;-79
2022/03/25 05:16:02;;;;;;;36.53;19.98;;;;;;;9.33;45.36;100942.09;4986973;28;20064;-79
2022/03/25 05:18:30;;;;;;;38.20;18.92;;;;;;;9.29;45.45;100951.22;5009273;28;20515;-81
2022/03/25 05:21:01;;;;;;;35.40;18.45;;;;;;;9.27;45.65;100945.16;4977988;28;20081;-82
2022/03/25 05:23:29;;;;;;;36.60;19.40;;;;;;;9.27;45.60;100949.63;4967904;28;20048;-81
2022/03/25 05:25:56;;;;;;;37.08;18.25;;;;;;;9.23;45.59;100948.94;5001369;28;20061;-81
2022/03/25 05:28:26;;;;;;;37.80;19.65;;;;;;;9.23;45.88;100951.59;5001168;28;20676;-81
2022/03/25 05:30:53;;;;;;;34.70;18.33;;;;;;;9.22;45.68;100949.06;5013670;28;20103;-81
2022/03/25 05:33:21;;;;;;;34.15;18.38;;;;;;;9.22;45.73;100949.06;4985569;28;20041;-81
2022/03/25 05:35:49;;;;;;;41.35;20.08;;;;;;;9.20;46.12;100951.81;4967906;28;20049;-80
2022/03/25 05:38:15;;;;;;;33.75;17.00;;;;;;;9.19;45.75;100954.56;4991625;28;20477;-79
2022/03/25 05:40:43;;;;;;;36.35;17.83;;;;;;;9.18;46.08;100961.66;4994885;28;20374;-79
2022/03/25 05:43:11;;;;;;;33.00;18.38;;;;;;;9.17;45.77;100953.81;4984741;28;20490;-80
2022/03/25 05:45:38;;;;;;;38.05;19.75;;;;;;;9.16;46.13;100958.28;4967565;28;20140;-79
2022/03/25 05:48:05;;;;;;;34.15;18.00;;;;;;;9.13;46.49;100959.31;5007891;28;20037;-79
2022/03/25 05:50:32;;;;;;;37.10;18.13;;;;;;;9.12;46.02;100962.91;5007488;28;20674;-80
2022/03/25 05:52:58;;;;;;;35.15;17.55;;;;;;;9.15;46.29;100963.66;4982433;28;20049;-79
2022/03/25 05:55:25;;;;;;;39.00;20.08;;;;;;;9.10;46.21;100966.59;4997358;28;20076;-79
2022/03/25 05:57:52;;;;;;;35.42;18.77;;;;;;;9.07;46.26;100972.09;4974548;28;20049;-79
2022/03/25 06:00:19;;;;;;;37.22;17.65;;;;;;;9.05;46.56;100976.66;4985645;28;20617;-79
2022/03/25 06:02:45;;;;;;;35.22;18.33;;;;;;;9.02;47.00;100985.63;4992274;28;20045;-80
2022/03/25 06:05:13;;;;;;;34.60;18.80;;;;;;;8.99;47.08;100990.28;4992991;28;20046;-80
2022/03/25 06:07:42;;;;;;;37.55;19.63;;;;;;;8.97;46.87;100986.88;4974830;28;20110;-79
2022/03/25 06:10:10;;;;;;;40.50;19.50;;;;;;;8.96;47.08;100980.75;5009794;28;20041;-79
2022/03/25 06:12:39;;;;;;;39.13;20.08;;;;;;;8.95;46.68;100986.97;4985483;28;20581;-79
2022/03/25 06:15:08;;;;;;;34.53;18.85;;;;;;;8.96;46.92;100987.84;4982397;28;20390;-80
2022/03/25 06:17:48;;;;;;;39.38;19.35;;;;;;;8.88;47.36;100989.19;4976104;28;20054;-80
2022/03/25 06:20:19;;;;;;;40.42;18.65;;;;;;;8.91;47.16;100996.06;4961572;28;20049;-80
2022/03/25 06:22:47;;;;;;;40.45;19.65;;;;;;;8.92;46.89;100992.47;5009216;28;20041;-80
2022/03/25 06:25:13;;;;;;;38.30;19.65;;;;;;;8.94;47.02;100997.69;4996001;28;20542;-78
2022/03/25 06:27:55;;;;;;;36.65;18.55;;;;;;;8.83;47.39;100993.91;4968895;28;20461;-78
2022/03/25 06:30:27;;;;;;;42.20;20.42;;;;;;;8.91;47.23;100988.13;4986104;28;20132;-79
2022/03/25 06:32:54;;;;;;;37.47;18.92;;;;;;;8.94;46.95;101000.34;5002014;28;20045;-79
2022/03/25 06:35:21;;;;;;;40.33;19.98;;;;;;;8.94;47.13;100989.75;4980600;28;20046;-78
2022/03/25 06:37:48;;;;;;;41.17;20.58;;;;;;;8.96;47.04;100990.50;4986626;28;20650;-79
2022/03/25 06:40:15;;;;;;;34.63;18.65;;;;;;;8.94;47.14;100987.94;5007829;28;20506;-79
2022/03/25 06:42:43;;;;;;;41.97;21.48;;;;;;;8.94;47.30;100995.88;5002745;28;20046;-79
2022/03/25 06:45:11;;;;;;;39.30;19.73;;;;;;;8.93;47.22;101003.91;5008826;28;20660;-79
2022/03/25 06:47:38;;;;;;;41.00;19.77;;;;;;;8.95;47.42;101002.03;5009490;28;20057;-79
2022/03/25 06:50:06;;;;;;;37.85;19.35;;;;;;;8.95;47.18;101000.22;4993630;28;20064;-78
2022/03/25 06:52:33;;;;;;;42.47;20.35;;;;;;;8.96;47.29;101003.75;4990108;28;20038;-79
2022/03/25 06:55:00;;;;;;;36.67;19.55;;;;;;;8.96;47.67;101001.94;5005124;28;20049;-79
2022/03/25 06:57:27;;;;;;;37.20;18.63;;;;;;;8.97;47.77;101003.63;4979173;28;20039;-79
2022/03/25 06:59:54;;;;;;;41.55;20.65;;;;;;;8.99;47.56;101009.69;4993188;28;20109;-79
2022/03/25 07:02:21;;;;;;;37.92;20.13;;;;;;;9.00;47.59;101014.03;4968893;28;20038;-79
2022/03/25 07:04:48;;;;;;;41.88;19.65;;;;;;;9.00;47.94;100999.94;4961679;28;20057;-79
2022/03/25 07:07:18;;;;;;;40.03;19.95;;;;;;;8.99;47.79;101007.03;4999774;28;20041;-79
2022/03/25 07:09:46;;;;;;;36.13;20.52;;;;;;;9.00;47.62;101008.72;4984437;28;20539;-79
2022/03/25 07:12:16;;;;;;;41.00;20.30;;;;;;;9.01;47.93;101012.25;4981304;28;20459;-79
2022/03/25 07:14:43;;;;;;;39.90;21.15;;;;;;;9.02;48.21;101008.63;4993082;28;20053;-79
2022/03/25 07:17:10;;;;;;;44.72;20.98;;;;;;;9.02;48.25;101009.47;4998295;28;20500;-79
2022/03/25 07:19:36;;;;;;;39.80;20.80;;;;;;;9.06;48.35;101010.16;4999148;28;20056;-79
2022/03/25 07:22:03;;;;;;;42.35;21.95;;;;;;;9.05;48.69;101016.38;4981020;28;20046;-79
2022/03/25 07:24:30;;;;;;;41.80;21.50;;;;;;;9.04;48.57;101014.69;4995631;28;20042;-79
2022/03/25 07:26:57;;;;;;;39.28;21.33;;;;;;;9.05;48.73;101011.09;5004292;28;20092;-79
2022/03/25 07:29:24;;;;;;;40.22;20.48;;;;;;;9.03;48.81;101010.34;5011147;28;20041;-79
2022/03/25 07:31:51;;;;;;;46.80;21.23;;;;;;;9.03;48.83;101011.22;5013517;28;20049;-79
2022/03/25 07:34:18;;;;;;;43.05;20.92;;;;;;;9.04;48.62;101010.25;5002596;28;20042;-79
2022/03/25 07:36:44;;;;;;;41.97;20.58;;;;;;;9.06;49.14;101004.88;5008915;28;20045;-79
2022/03/25 07:39:11;;;;;;;44.22;20.88;;;;;;;9.08;49.24;101016.19;5018359;28;20046;-79
2022/03/25 07:41:38;;;;;;;42.30;22.27;;;;;;;9.11;49.24;101016.88;4970625;28;20046;-79
2022/03/25 07:44:05;;;;;;;43.92;21.48;;;;;;;9.15;49.20;101016.66;4998836;28;20057;-80
2022/03/25 07:46:33;;;;;;;44.80;21.55;;;;;;;9.07;49.81;101015.34;5013676;28;20053;-79
2022/03/25 07:49:00;;;;;;;44.17;22.75;;;;;;;9.10;49.74;101015.16;4975560;28;20129;-79
2022/03/25 07:51:26;;;;;;;51.38;21.75;;;;;;;9.16;49.58;101015.69;4980274;28;20046;-79
2022/03/25 07:53:54;;;;;;;45.00;21.50;;;;;;;9.19;49.67;101015.53;4999046;28;20374;-79
2022/03/25 07:56:21;;;;;;;44.92;23.42;;;;;;;9.12;50.15;101012.41;5012394;28;20103;-79
2022/03/25 07:58:47;;;;;;;43.95;22.55;;;;;;;9.18;50.06;101019.13;5010121;28;20050;-80
2022/03/25 08:01:15;;;;;;;52.78;24.40;;;;;;;9.22;50.47;101012.69;5016033;28;20053;-79
2022/03/25 08:03:42;;;;;;;42.63;23.80;;;;;;;9.20;50.42;101020.72;5017649;28;20113;-79
2022/03/25 08:06:12;;;;;;;47.70;22.17;;;;;;;9.23;50.67;101017.03;5015747;28;20067;-79
2022/03/25 08:08:39;;;;;;;42.00;21.58;;;;;;;9.31;50.55;101023.56;5000346;28;20041;-79
2022/03/25 08:11:06;;;;;;;41.88;22.60;;;;;;;9.39;50.50;101014.22;5007744;28;20049;-79
2022/03/25 08:13:34;;;;;;;49.90;25.13;;;;;;;9.38;51.42;101015.19;5002384;28;20112;-79
2022/03/25 08:16:01;;;;;;;47.58;23.70;;;;;;;9.39;50.91;101014.22;5027967;28;20497;-79
2022/03/25 08:18:28;;;;;;;48.25;23.67;;;;;;;9.38;50.70;101004.59;5019899;28;20056;-79
2022/03/25 08:20:57;;;;;;;48.10;24.42;;;;;;;9.43;50.67;101011.28;5011500;28;20567;-79
2022/03/25 08:28:58;;;;;;;53.00;24.95;;;;;;;9.57;50.57;101013.06;4977626;28;20439;-79
2022/03/25 08:31:42;;;;;;;55.05;25.95;;;;;;;9.62;50.69;101010.09;4971895;28;20099;-79
2022/03/25 08:34:14;;;;;;;50.28;24.35;;;;;;;9.63;50.67;101007.34;5014264;28;20049;-79
2022/03/25 08:36:45;;;;;;;46.88;24.80;;;;;;;9.65;50.69;101015.19;5016278;28;20052;-79
2022/03/25 08:39:13;;;;;;;45.78;24.42;;;;;;;9.69;50.79;101019.34;4974263;28;20046;-79
2022/03/25 08:41:43;;;;;;;50.50;25.65;;;;;;;9.72;50.96;101025.31;5011784;28;20045;-79
2022/03/25 08:44:10;;;;;;;51.17;26.67;;;;;;;9.76;51.33;101023.28;5007413;28;20673;-79
2022/03/25 08:46:37;;;;;;;47.50;24.73;;;;;;;9.82;51.29;101019.38;5009894;28;20059;-79
2022/03/25 08:49:12;;;;;;;51.85;26.17;;;;;;;9.89;51.53;101015.38;5002821;28;20076;-79
2022/03/25 08:51:43;;;;;;;54.85;26.33;;;;;;;9.83;51.27;101021.09;5024117;28;20041;-79
2022/03/25 08:54:10;;;;;;;50.10;26.02;;;;;;;9.86;50.96;101013.78;5005304;28;20041;-79
2022/03/25 08:56:38;;;;;;;50.10;25.65;;;;;;;9.88;51.16;101022.47;5000760;28;20047;-79
2022/03/25 08:59:05;;;;;;;54.67;27.77;;;;;;;9.92;51.79;101012.50;5014900;28;20045;-80
2022/03/25 09:01:32;;;;;;;53.20;27.75;;;;;;;9.95;51.41;101013.16;5002585;28;20045;-79
2022/03/25 09:03:59;;;;;;;50.58;27.02;;;;;;;9.99;51.57;101016.44;4992868;28;20053;-79
2022/03/25 09:06:26;;;;;;;60.30;28.30;;;;;;;10.07;51.35;101014.13;4999883;28;20445;-81
2022/03/25 09:08:53;;;;;;;47.03;25.90;;;;;;;10.07;51.37;101011.47;5037030;28;20041;-79
2022/03/25 09:11:20;;;;;;;60.45;28.08;;;;;;;10.14;51.59;101020.72;4999832;28;20060;-79
2022/03/25 09:13:47;;;;;;;53.15;27.55;;;;;;;10.18;51.75;101013.41;4996796;28;20049;-80
2022/03/25 09:16:16;;;;;;;54.20;28.60;;;;;;;10.24;51.11;101010.34;5036198;28;20048;-79
2022/03/25 09:18:43;;;;;;;53.90;26.50;;;;;;;10.20;51.19;101001.75;4996450;28;20045;-79
2022/03/25 09:21:10;;;;;;;62.10;29.33;;;;;;;10.25;50.49;101006.72;4980508;28;20049;-79
2022/03/25 09:23:37;;;;;;;55.42;27.33;;;;;;;10.22;50.77;101005.13;5034000;28;20451;-79
2022/03/25 09:26:04;;;;;;;53.30;26.20;;;;;;;10.25;51.02;101005.88;4987154;28;20087;-79
2022/03/25 09:28:30;;;;;;;58.53;27.55;;;;;;;10.29;50.57;101000.28;4990212;28;20102;-79
2022/03/25 09:30:57;;;;;;;57.40;29.50;;;;;;;10.32;50.41;101007.19;4968544;28;20663;-79
2022/03/25 09:33:24;;;;;;;65.68;29.02;;;;;;;10.34;50.42;100992.84;4986257;28;20037;-79
2022/03/25 09:35:51;;;;;;;59.47;30.00;;;;;;;10.40;50.50;100997.72;4996427;28;20049;-79
2022/03/25 09:38:18;;;;;;;66.18;31.50;;;;;;;10.51;49.52;100998.81;5007504;28;20662;-79
2022/03/25 09:40:46;;;;;;;58.15;27.40;;;;;;;10.44;49.73;100998.38;4990862;28;20056;-79
2022/03/25 09:43:13;;;;;;;62.90;29.65;;;;;;;10.50;49.63;101002.41;5034028;28;20053;-79
2022/03/25 09:45:40;;;;;;;68.40;32.25;;;;;;;10.58;49.91;101002.72;4985578;28;20044;-79
2022/03/25 09:48:07;;;;;;;68.80;32.05;;;;;;;10.61;49.40;100997.22;4982070;28;20045;-79
2022/03/25 09:50:36;;;;;;;66.85;30.67;;;;;;;10.68;48.97;100992.31;5014938;28;20057;-79
2022/03/25 09:53:04;;;;;;;65.53;31.13;;;;;;;10.66;49.29;100992.44;4994077;28;20500;-79
2022/03/25 09:55:37;;;;;;;59.75;29.23;;;;;;;10.68;48.92;100995.81;5014537;28;20127;-79
2022/03/25 09:58:04;;;;;;;61.05;29.00;;;;;;;10.74;48.63;100989.22;5004363;28;20041;-79
2022/03/25 10:00:31;;;;;;;69.60;31.05;;;;;;;10.83;48.35;100994.72;5014723;28;20060;-79
2022/03/25 10:02:59;;;;;;;59.80;29.48;;;;;;;10.79;48.58;100984.44;5031150;28;20118;-79
2022/03/25 10:05:26;;;;;;;59.28;29.15;;;;;;;10.83;48.39;100981.44;5005692;28;20056;-80
2022/03/25 10:07:57;;;;;;;65.43;31.20;;;;;;;10.89;48.88;100985.50;4981169;28;20049;-79
2022/03/25 10:10:25;;;;;;;62.33;29.50;;;;;;;10.91;48.79;100985.34;5002949;28;20045;-79
2022/03/25 10:13:02;;;;;;;60.10;29.00;;;;;;;10.86;48.14;100980.38;5012607;28;20048;-79
2022/03/25 10:15:32;;;;;;;61.17;29.65;;;;;;;10.91;48.20;100980.03;4997262;28;20069;-79
2022/03/25 10:18:03;;;;;;;73.78;32.03;;;;;;;10.95;47.73;100979.72;5009109;28;20500;-79
2022/03/25 10:20:33;;;;;;;71.05;31.02;;;;;;;11.04;47.48;100971.09;4996599;28;20100;-79
2022/03/25 10:23:03;;;;;;;66.18;31.23;;;;;;;11.05;47.54;100974.59;4986597;28;20118;-79
2022/03/25 10:25:37;;;;;;;59.63;30.58;;;;;;;11.07;47.29;100960.22;5013101;28;20501;-79
2022/03/25 10:28:16;;;;;;;63.28;29.52;;;;;;;11.23;47.65;100973.25;5015589;28;20045;-79
2022/03/25 10:30:43;;;;;;;69.25;32.35;;;;;;;11.35;47.54;100968.84;4994908;28;20045;-79
2022/03/25 10:33:21;;;;;;;67.75;32.42;;;;;;;11.44;47.02;100964.66;5013789;28;20052;-79
2022/03/25 10:35:53;;;;;;;62.03;28.95;;;;;;;11.43;47.07;100962.97;4982103;28;20057;-79
2022/03/25 10:38:21;;;;;;;59.92;30.00;;;;;;;11.41;46.33;100960.41;4973505;28;20045;-79
2022/03/25 10:40:57;;;;;;;65.53;31.60;;;;;;;11.52;45.63;100970.25;4980082;28;20057;-81
2022/03/25 10:43:24;;;;;;;65.88;31.17;;;;;;;11.73;44.88;100965.16;5025170;28;20056;-79
2022/03/25 10:45:51;;;;;;;66.90;31.92;;;;;;;11.88;45.06;100955.19;5020114;28;20044;-79
2022/03/25 10:48:22;;;;;;;64.95;31.88;;;;;;;11.79;45.23;100966.50;4989946;28;20048;-79
2022/03/25 10:51:05;;;;;;;58.30;27.48;;;;;;;11.65;44.12;100960.41;4946279;28;20046;-79
2022/03/25 10:53:34;;;;;;;58.95;27.48;;;;;;;11.62;44.74;100957.13;4932420;28;20050;-79
2022/03/25 10:56:05;;;;;;;65.85;31.50;;;;;;;11.91;43.14;100958.47;4961082;28;20043;-79
2022/03/25 10:58:34;;;;;;;62.25;30.50;;;;;;;12.13;42.41;100954.16;4960957;28;20201;-80
2022/03/25 11:01:01;;;;;;;62.92;30.08;;;;;;;12.30;42.16;100960.84;4956253;28;20058;-79
2022/03/25 11:03:28;;;;;;;60.25;29.67;;;;;;;12.13;41.52;100959.47;4952056;28;20043;-79
2022/03/25 11:05:56;;;;;;;58.40;29.45;;;;;;;12.05;41.63;100956.56;4946807;28;20441;-79
2022/03/25 11:08:22;;;;;;;54.67;28.00;;;;;;;11.98;42.21;100958.84;4961860;28;20050;-79
2022/03/25 11:10:52;;;;;;;53.72;27.27;;;;;;;11.94;42.53;100960.06;4978117;28;20282;-79
2022/03/25 11:13:22;;;;;;;56.85;27.73;;;;;;;11.90;42.57;100954.09;4964123;28;20038;-79
2022/03/25 11:15:52;;;;;;;57.78;27.52;;;;;;;11.87;42.04;100950.81;4963049;28;20466;-79
2022/03/25 11:18:20;;;;;;;55.22;28.17;;;;;;;11.92;42.32;100946.00;4959071;28;20049;-78
2022/03/25 11:20:47;;;;;;;60.33;31.15;;;;;;;12.02;41.47;100943.50;4970911;28;20050;-79